createdAt,value
2022-08-08T00:02:03.446Z,14.02
2022-08-08T00:04:56.698Z,13.96
2022-08-08T00:07:42.311Z,13.90
2022-08-08T00:10:28.336Z,13.86
2022-08-08T00:13:20.797Z,13.82
2022-08-08T00:16:09.507Z,13.78
2022-08-08T00:19:22.981Z,13.74
2022-08-08T00:22:12.995Z,13.69
2022-08-08T00:24:50.823Z,13.62
2022-08-08T00:27:21.632Z,13.53
2022-08-08T00:30:01.439Z,13.50
2022-08-08T00:33:02.775Z,13.45
2022-08-08T00:36:08.438Z,13.42
2022-08-08T00:41:06.863Z,13.38
2022-08-08T00:42:42.096Z,13.32
2022-08-08T00:45:39.937Z,13.22
2022-08-08T00:48:34.017Z,13.16
2022-08-08T00:51:51.766Z,13.13
2022-08-08T00:55:05.116Z,13.09
2022-08-08T00:58:13.616Z,13.05
2022-08-08T01:01:36.410Z,13.01
2022-08-08T01:04:44.160Z,12.99
2022-08-08T01:08:02.307Z,12.97
2022-08-08T01:10:34.596Z,12.94
2022-08-08T01:13:44.095Z,12.90
2022-08-08T01:16:46.422Z,12.88
2022-08-08T01:20:01.580Z,12.82
2022-08-08T01:23:05.985Z,12.72
2022-08-08T01:26:11.382Z,12.68
2022-08-08T01:29:11.066Z,12.66
2022-08-08T01:32:17.504Z,12.65
2022-08-08T01:35:17.079Z,12.63
2022-08-08T01:38:26.140Z,12.60
2022-08-08T01:41:34.275Z,12.58
2022-08-08T01:44:54.931Z,12.55
2022-08-08T01:48:23.641Z,12.53
2022-08-08T01:51:32.029Z,12.50
2022-08-08T01:55:46.044Z,12.46
2022-08-08T01:58:13.057Z,12.43
2022-08-08T02:01:17.261Z,12.40
2022-08-08T02:04:20.371Z,12.35
2022-08-08T02:07:02.526Z,12.29
2022-08-08T02:10:45.218Z,12.26
2022-08-08T02:13:52.813Z,12.20
2022-08-08T02:16:40.638Z,12.17
2022-08-08T02:20:07.777Z,12.15
2022-08-08T02:23:16.511Z,12.10
2022-08-08T02:26:10.075Z,12.02
2022-08-08T02:29:00.443Z,11.97
2022-08-08T02:32:22.905Z,11.97
2022-08-08T02:36:04.598Z,11.95
2022-08-08T02:39:42.313Z,11.92
2022-08-08T02:42:43.084Z,11.90
2022-08-08T02:45:40.286Z,11.87
2022-08-08T02:48:53.986Z,11.85
2022-08-08T02:52:02.146Z,11.82
2022-08-08T02:55:10.369Z,11.79
2022-08-08T02:58:32.195Z,11.77
2022-08-08T03:01:14.945Z,11.76
2022-08-08T03:05:02.648Z,11.74
2022-08-08T03:08:04.627Z,11.73
2022-08-08T03:10:53.419Z,11.70
2022-08-08T03:15:59.561Z,11.67
2022-08-08T03:16:53.204Z,11.63
2022-08-08T03:20:07.797Z,11.60
2022-08-08T03:22:56.872Z,11.57
2022-08-08T03:25:34.129Z,11.54
2022-08-08T03:28:20.935Z,11.53
2022-08-08T03:31:13.533Z,11.52
2022-08-08T03:33:55.934Z,11.50
2022-08-08T03:36:30.361Z,11.48
2022-08-08T03:39:14.160Z,11.46
2022-08-08T03:42:26.957Z,11.44
2022-08-08T03:44:35.317Z,11.44
2022-08-08T03:47:14.187Z,11.44
2022-08-08T03:49:59.894Z,11.43
2022-08-08T03:52:32.389Z,11.43
2022-08-08T03:55:19.838Z,11.44
2022-08-08T03:58:31.806Z,11.44
2022-08-08T04:01:02.196Z,11.42
2022-08-08T04:03:58.354Z,11.41
2022-08-08T04:06:30.511Z,11.41
2022-08-08T04:09:11.431Z,11.38
2022-08-08T04:11:57.864Z,11.36
2022-08-08T04:14:34.312Z,11.32
2022-08-08T04:17:07.069Z,11.29
2022-08-08T04:19:51.907Z,11.30
2022-08-08T04:22:24.234Z,11.33
2022-08-08T04:24:53.925Z,11.35
2022-08-08T04:28:02.799Z,11.37
2022-08-08T04:30:18.131Z,11.40
2022-08-08T04:32:50.014Z,11.44
2022-08-08T04:35:22.551Z,11.48
2022-08-08T04:37:53.921Z,11.52
2022-08-08T04:40:24.175Z,11.57
2022-08-08T04:42:57.128Z,11.63
2022-08-08T04:45:27.059Z,11.68
2022-08-08T04:47:57.325Z,11.75
2022-08-08T04:50:34.274Z,11.81
2022-08-08T04:53:14.245Z,11.88
2022-08-08T04:55:56.826Z,11.96
2022-08-08T04:58:25.626Z,12.05
2022-08-08T05:00:54.696Z,12.15
2022-08-08T05:04:11.160Z,12.25
2022-08-08T05:06:18.154Z,12.37
2022-08-08T05:08:54.625Z,12.49
2022-08-08T05:11:26.266Z,12.59
2022-08-08T05:13:58.658Z,12.71
2022-08-08T05:16:51.256Z,12.82
2022-08-08T05:20:09.270Z,12.95
2022-08-08T05:22:10.561Z,13.08
2022-08-08T05:24:39.192Z,13.18
2022-08-08T05:27:09.218Z,13.30
2022-08-08T05:29:38.152Z,13.42
2022-08-08T05:32:09.598Z,13.53
2022-08-08T05:34:49.284Z,13.63
2022-08-08T05:37:28.275Z,13.73
2022-08-08T05:40:10.257Z,13.85
2022-08-08T05:42:49.818Z,13.97
2022-08-08T05:45:25.312Z,14.09
2022-08-08T05:48:08.638Z,14.20
2022-08-08T05:50:40.021Z,14.31
2022-08-08T05:53:54.268Z,14.41
2022-08-08T05:56:11.494Z,14.52
2022-08-08T05:58:53.638Z,14.65
2022-08-08T06:01:51.128Z,14.77
2022-08-08T06:04:23.676Z,14.88
2022-08-08T06:06:56.677Z,14.99
2022-08-08T06:09:58.421Z,15.11
2022-08-08T06:12:29.952Z,15.24
2022-08-08T06:15:03.235Z,15.35
2022-08-08T06:17:51.306Z,15.48
2022-08-08T06:20:25.658Z,15.64
2022-08-08T06:22:56.492Z,15.77
2022-08-08T06:26:36.139Z,15.91
2022-08-08T06:28:29.293Z,16.07
2022-08-08T06:31:05.218Z,16.19
2022-08-08T06:34:25.742Z,16.31
2022-08-08T06:37:00.198Z,16.47
2022-08-08T06:39:33.314Z,16.59
2022-08-08T06:42:03.091Z,16.72
2022-08-08T06:44:32.933Z,16.84
2022-08-08T06:47:02.392Z,16.97
2022-08-08T06:49:55.274Z,17.07
2022-08-08T06:52:22.192Z,17.20
2022-08-08T06:54:51.314Z,17.33
2022-08-08T06:57:19.777Z,17.47
2022-08-08T07:00:01.714Z,17.62
2022-08-08T07:02:46.036Z,17.78
2022-08-08T07:05:20.368Z,17.93
2022-08-08T07:07:52.886Z,18.08
2022-08-08T07:10:26.383Z,18.22
2022-08-08T07:13:19.957Z,18.36
2022-08-08T07:16:10.377Z,18.52
2022-08-08T07:19:12.389Z,18.68
2022-08-08T07:22:05.679Z,18.83
2022-08-08T07:25:06.763Z,18.98
2022-08-08T07:28:01.966Z,19.12
2022-08-08T07:30:31.874Z,19.28
2022-08-08T07:33:01.444Z,19.41
2022-08-08T07:35:31.354Z,19.54
2022-08-08T07:38:18.453Z,19.67
2022-08-08T07:41:04.614Z,19.81
2022-08-08T07:43:37.052Z,19.96
2022-08-08T07:46:23.776Z,20.10
2022-08-08T07:48:55.547Z,20.25
2022-08-08T07:51:44.826Z,20.38
2022-08-08T07:54:26.750Z,20.52
2022-08-08T07:57:19.788Z,20.62
2022-08-08T08:00:16.767Z,20.73
2022-08-08T08:03:03.715Z,20.83
2022-08-08T08:05:39.447Z,20.94
2022-08-08T08:08:54.567Z,21.05
2022-08-08T08:11:33.559Z,21.19
2022-08-08T08:14:09.663Z,21.31
2022-08-08T08:16:41.278Z,21.42
2022-08-08T08:19:12.798Z,21.53
2022-08-08T08:21:56.905Z,21.62
2022-08-08T08:24:31.923Z,21.68
2022-08-08T08:27:02.738Z,21.76
2022-08-08T08:29:32.562Z,21.87
2022-08-08T08:32:05.514Z,21.98
2022-08-08T08:34:36.983Z,22.09
2022-08-08T08:37:12.077Z,22.20
2022-08-08T08:40:00.416Z,22.31
2022-08-08T08:42:36.565Z,22.41
2022-08-08T08:45:21.993Z,22.50
2022-08-08T08:47:54.149Z,22.63
2022-08-08T08:50:33.129Z,22.75
2022-08-08T08:53:27.787Z,22.90
2022-08-08T08:56:01.943Z,23.05
2022-08-08T08:58:42.815Z,23.16
2022-08-08T09:01:15.339Z,23.21
2022-08-08T09:03:51.511Z,23.21
2022-08-08T09:06:33.212Z,23.28
2022-08-08T09:09:26.111Z,23.42
2022-08-08T09:12:07.861Z,23.62
2022-08-08T09:14:42.261Z,23.83
2022-08-08T09:17:31.639Z,24.04
2022-08-08T09:21:58.132Z,24.30
2022-08-08T09:22:58.494Z,24.59
2022-08-08T09:25:36.050Z,24.78
2022-08-08T09:28:35.708Z,24.95
2022-08-08T09:31:17.119Z,24.97
2022-08-08T09:34:14.666Z,25.07
2022-08-08T09:36:51.729Z,25.28
2022-08-08T09:40:10.453Z,25.57
2022-08-08T09:42:51.382Z,26.01
2022-08-08T09:46:00.810Z,26.37
2022-08-08T09:48:26.103Z,26.72
2022-08-08T09:51:04.928Z,26.99
2022-08-08T09:54:09.472Z,27.12
2022-08-08T09:56:54.632Z,27.34
2022-08-08T10:00:01.839Z,27.67
2022-08-08T10:02:28.918Z,28.01
2022-08-08T10:05:15.208Z,28.26
2022-08-08T10:08:00.312Z,28.63
2022-08-08T10:10:41.309Z,28.90
2022-08-08T10:13:32.455Z,29.13
2022-08-08T10:16:05.404Z,29.36
2022-08-08T10:18:39.672Z,29.56
2022-08-08T10:21:25.091Z,29.86
2022-08-08T10:24:04.676Z,30.26
2022-08-08T10:26:56.913Z,30.63
2022-08-08T10:29:58.759Z,30.94
2022-08-08T10:32:48.263Z,31.25
2022-08-08T10:36:09.622Z,31.56
2022-08-08T10:38:16.274Z,31.69
2022-08-08T10:40:50.479Z,31.93
2022-08-08T10:43:20.062Z,32.22
2022-08-08T10:45:56.003Z,32.46
2022-08-08T10:48:56.868Z,32.61
2022-08-08T10:51:40.892Z,32.80
2022-08-08T10:54:25.147Z,33.08
2022-08-08T10:57:08.941Z,33.32
2022-08-08T10:59:39.857Z,33.60
2022-08-08T11:02:11.379Z,33.94
2022-08-08T11:04:53.639Z,34.30
2022-08-08T11:08:31.098Z,34.38
2022-08-08T11:10:28.625Z,33.95
2022-08-08T11:15:59.005Z,31.56
2022-08-08T11:18:33.636Z,30.57
2022-08-08T11:21:08.892Z,30.10
2022-08-08T11:23:42.262Z,30.15
2022-08-08T11:26:19.102Z,30.37
2022-08-08T11:28:51.081Z,30.32
2022-08-08T11:31:21.001Z,30.81
2022-08-08T11:34:03.055Z,31.55
2022-08-08T11:36:36.449Z,32.37
2022-08-08T11:39:10.883Z,33.03
2022-08-08T11:41:43.349Z,33.17
2022-08-08T11:44:15.760Z,33.28
2022-08-08T11:46:44.867Z,33.27
2022-08-08T11:49:17.131Z,33.03
2022-08-08T11:51:49.914Z,32.85
2022-08-08T11:54:38.322Z,32.76
2022-08-08T11:57:18.130Z,32.80
2022-08-08T12:00:05.907Z,32.88
2022-08-08T12:02:52.146Z,33.27
2022-08-08T12:05:38.873Z,33.93
2022-08-08T12:08:07.873Z,34.60
2022-08-08T12:10:50.905Z,34.99
2022-08-08T12:13:37.978Z,35.01
2022-08-08T12:16:20.674Z,34.68
2022-08-08T12:19:05.800Z,34.17
2022-08-08T12:22:00.375Z,33.79
2022-08-08T12:24:27.972Z,33.37
2022-08-08T12:26:58.896Z,33.05
2022-08-08T12:29:40.580Z,32.81
2022-08-08T12:32:20.093Z,33.07
2022-08-08T12:35:01.184Z,33.44
2022-08-08T12:37:40.161Z,33.95
2022-08-08T12:40:22.949Z,34.57
2022-08-08T12:42:53.540Z,35.34
2022-08-08T12:46:00.135Z,35.61
2022-08-08T12:48:35.693Z,35.42
2022-08-08T12:51:11.108Z,35.13
2022-08-08T12:54:14.480Z,34.77
2022-08-08T12:56:53.450Z,34.28
2022-08-08T12:59:44.680Z,33.96
2022-08-08T13:02:28.274Z,33.77
2022-08-08T13:05:00.348Z,33.88
2022-08-08T13:08:04.100Z,34.06
2022-08-08T13:10:36.513Z,34.34
2022-08-08T13:13:37.242Z,35.06
2022-08-08T13:16:25.559Z,35.90
2022-08-08T13:19:01.633Z,36.82
2022-08-08T13:21:58.114Z,37.66
2022-08-08T13:24:42.444Z,38.42
2022-08-08T13:27:22.645Z,38.85
2022-08-08T13:30:07.074Z,39.00
2022-08-08T13:32:39.609Z,38.84
2022-08-08T13:35:24.926Z,38.55
2022-08-08T13:38:06.864Z,38.26
2022-08-08T13:40:40.964Z,38.30
2022-08-08T13:43:10.989Z,38.74
2022-08-08T13:45:40.954Z,39.26
2022-08-08T13:48:15.112Z,39.88
2022-08-08T13:50:53.855Z,40.39
2022-08-08T13:53:33.863Z,41.07
2022-08-08T13:56:11.248Z,41.65
2022-08-08T13:58:56.541Z,42.20
2022-08-08T14:01:52.469Z,42.67
2022-08-08T14:04:26.001Z,42.87
2022-08-08T14:07:35.002Z,42.26
2022-08-08T14:10:16.974Z,41.40
2022-08-08T14:12:48.580Z,41.40
2022-08-08T14:15:39.916Z,41.93
2022-08-08T14:18:35.866Z,42.68
2022-08-08T14:21:20.872Z,42.78
2022-08-08T14:24:07.544Z,41.89
2022-08-08T14:26:45.855Z,39.36
2022-08-08T14:29:30.268Z,37.96
2022-08-08T14:32:12.767Z,36.80
2022-08-08T14:35:07.702Z,36.00
2022-08-08T14:38:00.272Z,36.32
2022-08-08T14:40:33.160Z,36.86
2022-08-08T14:43:31.076Z,37.93
2022-08-08T14:46:06.251Z,39.35
2022-08-08T14:48:57.074Z,40.37
2022-08-08T14:51:47.318Z,41.34
2022-08-08T14:54:28.763Z,42.29
2022-08-08T14:56:58.080Z,43.18
2022-08-08T14:59:50.291Z,43.99
2022-08-08T15:02:25.425Z,44.69
2022-08-08T15:05:08.170Z,44.68
2022-08-08T15:07:41.557Z,43.93
2022-08-08T15:10:16.350Z,44.10
2022-08-08T15:12:47.164Z,44.66
2022-08-08T15:15:18.800Z,45.32
2022-08-08T15:18:08.358Z,46.25
2022-08-08T15:20:39.348Z,47.06
2022-08-08T15:23:09.758Z,47.73
2022-08-08T15:25:43.397Z,48.43
2022-08-08T15:28:33.687Z,49.15
2022-08-08T15:31:01.760Z,49.82
2022-08-08T15:33:35.567Z,50.29
2022-08-08T15:36:18.935Z,50.12
2022-08-08T15:38:52.941Z,49.60
2022-08-08T15:41:24.843Z,48.64
2022-08-08T15:44:00.878Z,47.99
2022-08-08T15:46:35.093Z,47.85
2022-08-08T15:49:04.692Z,48.32
2022-08-08T15:51:33.705Z,48.50
2022-08-08T15:54:04.846Z,48.02
2022-08-08T15:56:33.855Z,48.24
2022-08-08T15:59:02.457Z,48.89
2022-08-08T16:01:40.627Z,49.50
2022-08-08T16:04:20.276Z,48.09
2022-08-08T16:06:58.734Z,46.62
2022-08-08T16:13:09.239Z,43.94
2022-08-08T16:13:09.903Z,45.68
2022-08-08T16:15:09.613Z,43.19
2022-08-08T16:18:06.084Z,43.18
2022-08-08T16:20:29.646Z,43.37
2022-08-08T16:22:58.212Z,44.41
2022-08-08T16:25:45.577Z,45.60
2022-08-08T16:28:22.904Z,46.76
2022-08-08T16:31:07.717Z,47.74
2022-08-08T16:33:39.316Z,48.53
2022-08-08T16:36:15.833Z,49.28
2022-08-08T16:38:47.508Z,49.98
2022-08-08T16:41:22.719Z,50.58
2022-08-08T16:43:52.237Z,50.99
2022-08-08T16:46:37.653Z,51.23
2022-08-08T16:49:10.564Z,51.50
2022-08-08T16:54:59.758Z,51.73
2022-08-08T16:55:01.327Z,51.88
2022-08-08T16:57:22.796Z,51.91
2022-08-08T16:59:53.804Z,51.85
2022-08-08T17:02:23.367Z,51.63
2022-08-08T17:05:12.815Z,51.28
2022-08-08T17:07:42.280Z,50.98
2022-08-08T17:10:11.507Z,50.86
2022-08-08T17:12:41.541Z,50.60
2022-08-08T17:15:17.910Z,50.34
2022-08-08T17:18:03.088Z,50.10
2022-08-08T17:20:33.106Z,49.74
2022-08-08T17:23:18.028Z,48.25
2022-08-08T17:25:57.576Z,47.11
2022-08-08T17:28:34.773Z,46.86
2022-08-08T17:31:39.603Z,45.92
2022-08-08T17:34:53.241Z,44.96
2022-08-08T17:37:00.857Z,43.94
2022-08-08T17:40:04.904Z,43.71
2022-08-08T17:42:22.106Z,43.48
2022-08-08T17:44:52.814Z,43.32
2022-08-08T17:47:23.765Z,42.86
2022-08-08T17:50:01.607Z,41.89
2022-08-08T17:52:34.306Z,40.81
2022-08-08T17:56:03.295Z,39.85
2022-08-08T17:57:54.484Z,38.63
2022-08-08T18:00:30.376Z,37.46
2022-08-08T18:03:08.707Z,36.23
2022-08-08T18:05:48.169Z,35.06
2022-08-08T18:08:38.229Z,34.12
2022-08-08T18:11:18.348Z,33.11
2022-08-08T18:13:47.759Z,32.29
2022-08-08T18:16:22.994Z,31.59
2022-08-08T18:18:56.412Z,30.93
2022-08-08T18:21:58.981Z,30.34
2022-08-08T18:24:22.074Z,29.62
2022-08-08T18:26:54.484Z,28.38
2022-08-08T18:29:33.976Z,27.30
2022-08-08T18:32:06.598Z,26.52
2022-08-08T18:34:42.606Z,25.93
2022-08-08T18:37:17.573Z,25.38
2022-08-08T18:40:00.491Z,24.92
2022-08-08T18:42:29.292Z,24.69
2022-08-08T18:44:57.981Z,24.51
2022-08-08T18:47:33.470Z,24.31
2022-08-08T18:50:03.118Z,24.09
2022-08-08T18:52:36.889Z,23.83
2022-08-08T18:55:09.481Z,23.59
2022-08-08T18:57:45.080Z,23.37
2022-08-08T19:00:20.333Z,23.14
2022-08-08T19:02:55.670Z,22.90
2022-08-08T19:05:34.532Z,22.72
2022-08-08T19:08:24.944Z,22.58
2022-08-08T19:11:01.718Z,22.41
2022-08-08T19:13:52.860Z,22.29
2022-08-08T19:16:28.488Z,22.14
2022-08-08T19:19:02.606Z,22.02
2022-08-08T19:21:33.264Z,21.92
2022-08-08T19:24:43.851Z,21.78
2022-08-08T19:27:08.844Z,21.64
2022-08-08T19:29:45.751Z,21.54
2022-08-08T19:32:22.050Z,21.42
2022-08-08T19:34:52.590Z,21.29
2022-08-08T19:37:43.147Z,21.18
2022-08-08T19:40:15.928Z,21.04
2022-08-08T19:42:47.323Z,20.92
2022-08-08T19:45:59.298Z,20.80
2022-08-08T19:48:28.792Z,20.65
2022-08-08T19:51:00.876Z,20.52
2022-08-08T19:53:51.327Z,20.43
2022-08-08T19:56:25.917Z,20.33
2022-08-08T19:59:12.376Z,20.23
2022-08-08T20:02:01.508Z,20.15
2022-08-08T20:04:30.489Z,20.07
2022-08-08T20:07:05.292Z,20.00
2022-08-08T20:09:56.181Z,19.90
2022-08-08T20:12:32.672Z,19.80
2022-08-08T20:15:16.302Z,19.71
2022-08-08T20:17:47.737Z,19.63
2022-08-08T20:20:20.442Z,19.54
2022-08-08T20:22:54.125Z,19.48
2022-08-08T20:25:29.940Z,19.41
2022-08-08T20:28:07.032Z,19.33
2022-08-08T20:30:55.651Z,19.27
2022-08-08T20:35:59.035Z,19.13
2022-08-08T20:38:36.966Z,19.07
2022-08-08T20:41:17.804Z,19.01
2022-08-08T20:43:50.021Z,18.92
2022-08-08T20:46:25.599Z,18.84
2022-08-08T20:48:58.504Z,18.77
2022-08-08T20:51:31.652Z,18.71
2022-08-08T20:54:07.697Z,18.65
2022-08-08T20:57:04.638Z,18.59
2022-08-08T20:59:31.689Z,18.51
2022-08-08T21:02:12.475Z,18.46
2022-08-08T21:04:43.657Z,18.42
2022-08-08T21:07:47.082Z,18.36
2022-08-08T21:10:12.760Z,18.31
2022-08-08T21:12:44.455Z,18.25
2022-08-08T21:15:16.472Z,18.19
2022-08-08T21:18:03.363Z,18.11
2022-08-08T21:20:34.590Z,18.06
2022-08-08T21:23:03.601Z,18.00
2022-08-08T21:25:37.572Z,17.93
2022-08-08T21:28:14.697Z,17.87
2022-08-08T21:30:45.254Z,17.81
2022-08-08T21:33:21.220Z,17.74
2022-08-08T21:36:17.843Z,17.68
2022-08-08T21:38:38.313Z,17.62
2022-08-08T21:41:06.798Z,17.58
2022-08-08T21:43:36.880Z,17.53
2022-08-08T21:48:21.657Z,17.48
2022-08-08T21:48:57.351Z,17.42
2022-08-08T21:54:18.178Z,17.37
2022-08-08T21:54:52.338Z,17.31
2022-08-08T21:57:09.499Z,17.26
2022-08-08T22:00:02.716Z,17.21
2022-08-08T22:02:26.716Z,17.17
2022-08-08T22:04:59.226Z,17.14
2022-08-08T22:07:39.804Z,17.09
2022-08-08T22:10:18.401Z,17.05
2022-08-08T22:13:17.767Z,17.03
2022-08-08T22:15:58.718Z,17.02
2022-08-08T22:18:35.268Z,17.00
2022-08-08T22:21:13.972Z,16.96
2022-08-08T22:23:52.227Z,16.91
2022-08-08T22:26:28.597Z,16.87
2022-08-08T22:29:14.592Z,16.83
2022-08-08T22:31:59.526Z,16.79
2022-08-08T22:34:33.106Z,16.74
2022-08-08T22:37:15.103Z,16.70
2022-08-08T22:40:01.241Z,16.66
2022-08-08T22:42:31.650Z,16.63
2022-08-08T22:45:01.088Z,16.59
2022-08-08T22:47:38.278Z,16.54
2022-08-08T22:50:27.364Z,16.51
2022-08-08T22:54:19.526Z,16.47
2022-08-08T22:55:59.231Z,16.43
2022-08-08T22:58:34.412Z,16.39
2022-08-08T23:01:26.483Z,16.36
2022-08-08T23:03:59.504Z,16.31
2022-08-08T23:06:28.048Z,16.27
2022-08-08T23:08:59.015Z,16.23
2022-08-08T23:12:28.396Z,16.19
2022-08-08T23:14:21.509Z,16.16
2022-08-08T23:16:54.755Z,16.13
2022-08-08T23:19:32.296Z,16.12
2022-08-08T23:22:04.646Z,16.10
2022-08-08T23:24:41.114Z,16.06
2022-08-08T23:27:17.254Z,16.03
2022-08-08T23:30:03.699Z,15.98
2022-08-08T23:32:33.198Z,15.95
2022-08-08T23:35:01.955Z,15.93
2022-08-08T23:37:54.260Z,15.91
2022-08-08T23:40:25.447Z,15.86
2022-08-08T23:42:53.962Z,15.83
2022-08-08T23:49:01.122Z,15.78
2022-08-08T23:49:07.965Z,15.81
2022-08-08T23:50:59.731Z,15.74
2022-08-08T23:54:04.742Z,15.71
2022-08-08T23:56:31.764Z,15.67
2022-08-08T23:59:02.581Z,15.63
